sensor_id;sensor_type;location;lat;lon;timestamp;temperature;humidity
50955;DHT22;36966;48.064;-0.792;2024-03-02T00:00:22;16.00;50.20
50955;DHT22;36966;48.064;-0.792;2024-03-02T00:02:42;15.90;50.20
50955;DHT22;36966;48.064;-0.792;2024-03-02T00:05:02;15.90;50.10
50955;DHT22;36966;48.064;-0.792;2024-03-02T00:07:21;15.90;50.00
50955;DHT22;36966;48.064;-0.792;2024-03-02T00:09:41;15.90;50.10
50955;DHT22;36966;48.064;-0.792;2024-03-02T00:12:00;15.90;50.00
50955;DHT22;36966;48.064;-0.792;2024-03-02T00:14:19;15.80;50.10
50955;DHT22;36966;48.064;-0.792;2024-03-02T00:16:38;15.80;49.80
50955;DHT22;36966;48.064;-0.792;2024-03-02T00:19:01;15.90;50.00
50955;DHT22;36966;48.064;-0.792;2024-03-02T00:21:20;15.90;49.70
50955;DHT22;36966;48.064;-0.792;2024-03-02T00:23:41;15.90;49.80
50955;DHT22;36966;48.064;-0.792;2024-03-02T00:26:00;15.90;50.00
50955;DHT22;36966;48.064;-0.792;2024-03-02T00:28:21;15.90;49.80
50955;DHT22;36966;48.064;-0.792;2024-03-02T00:33:06;15.80;49.60
50955;DHT22;36966;48.064;-0.792;2024-03-02T00:35:26;15.80;50.00
50955;DHT22;36966;48.064;-0.792;2024-03-02T00:37:45;15.80;49.60
50955;DHT22;36966;48.064;-0.792;2024-03-02T00:40:04;15.80;49.80
50955;DHT22;36966;48.064;-0.792;2024-03-02T00:42:24;15.80;49.80
50955;DHT22;36966;48.064;-0.792;2024-03-02T00:44:44;15.80;49.80
50955;DHT22;36966;48.064;-0.792;2024-03-02T00:47:03;15.80;49.60
50955;DHT22;36966;48.064;-0.792;2024-03-02T00:49:23;15.70;49.80
50955;DHT22;36966;48.064;-0.792;2024-03-02T00:51:44;15.70;49.70
50955;DHT22;36966;48.064;-0.792;2024-03-02T00:54:08;15.80;49.60
50955;DHT22;36966;48.064;-0.792;2024-03-02T00:56:28;15.80;49.70
50955;DHT22;36966;48.064;-0.792;2024-03-02T00:58:47;15.80;49.70
50955;DHT22;36966;48.064;-0.792;2024-03-02T01:01:06;15.80;49.80
50955;DHT22;36966;48.064;-0.792;2024-03-02T01:03:26;15.70;49.70
50955;DHT22;36966;48.064;-0.792;2024-03-02T01:05:45;15.70;49.50
50955;DHT22;36966;48.064;-0.792;2024-03-02T01:08:05;15.70;49.60
50955;DHT22;36966;48.064;-0.792;2024-03-02T01:10:24;15.70;49.60
50955;DHT22;36966;48.064;-0.792;2024-03-02T01:12:44;15.70;49.50
50955;DHT22;36966;48.064;-0.792;2024-03-02T01:15:04;15.70;49.70
50955;DHT22;36966;48.064;-0.792;2024-03-02T01:17:25;15.70;49.70
50955;DHT22;36966;48.064;-0.792;2024-03-02T01:19:44;15.70;49.70
50955;DHT22;36966;48.064;-0.792;2024-03-02T01:22:04;15.70;49.80
50955;DHT22;36966;48.064;-0.792;2024-03-02T01:24:23;15.70;49.60
50955;DHT22;36966;48.064;-0.792;2024-03-02T01:26:42;15.70;49.50
50955;DHT22;36966;48.064;-0.792;2024-03-02T01:29:02;15.70;49.60
50955;DHT22;36966;48.064;-0.792;2024-03-02T01:31:21;15.70;49.60
50955;DHT22;36966;48.064;-0.792;2024-03-02T01:33:40;15.70;49.70
50955;DHT22;36966;48.064;-0.792;2024-03-02T01:36:00;15.70;49.50
50955;DHT22;36966;48.064;-0.792;2024-03-02T01:38:19;15.70;49.60
50955;DHT22;36966;48.064;-0.792;2024-03-02T01:40:39;15.70;49.50
50955;DHT22;36966;48.064;-0.792;2024-03-02T01:42:58;15.70;49.50
50955;DHT22;36966;48.064;-0.792;2024-03-02T01:45:17;15.70;49.60
50955;DHT22;36966;48.064;-0.792;2024-03-02T01:47:37;15.70;49.60
50955;DHT22;36966;48.064;-0.792;2024-03-02T01:49:56;15.70;49.70
50955;DHT22;36966;48.064;-0.792;2024-03-02T01:52:15;15.70;49.80
50955;DHT22;36966;48.064;-0.792;2024-03-02T01:54:34;15.70;49.70
50955;DHT22;36966;48.064;-0.792;2024-03-02T01:56:54;15.70;49.80
50955;DHT22;36966;48.064;-0.792;2024-03-02T01:59:13;15.70;49.70
50955;DHT22;36966;48.064;-0.792;2024-03-02T02:01:32;15.70;49.60
50955;DHT22;36966;48.064;-0.792;2024-03-02T02:03:52;15.70;49.60
50955;DHT22;36966;48.064;-0.792;2024-03-02T02:06:11;15.70;49.60
50955;DHT22;36966;48.064;-0.792;2024-03-02T02:08:30;15.70;49.70
50955;DHT22;36966;48.064;-0.792;2024-03-02T02:10:50;15.70;49.70
50955;DHT22;36966;48.064;-0.792;2024-03-02T02:13:09;15.70;49.70
50955;DHT22;36966;48.064;-0.792;2024-03-02T02:15:29;15.70;49.70
50955;DHT22;36966;48.064;-0.792;2024-03-02T02:17:48;15.70;49.60
50955;DHT22;36966;48.064;-0.792;2024-03-02T02:20:07;15.60;49.70
50955;DHT22;36966;48.064;-0.792;2024-03-02T02:22:26;15.60;49.60
50955;DHT22;36966;48.064;-0.792;2024-03-02T02:24:46;15.50;49.60
50955;DHT22;36966;48.064;-0.792;2024-03-02T02:27:05;15.50;49.80
50955;DHT22;36966;48.064;-0.792;2024-03-02T02:29:24;15.60;49.80
50955;DHT22;36966;48.064;-0.792;2024-03-02T02:31:43;15.50;49.70
50955;DHT22;36966;48.064;-0.792;2024-03-02T02:34:03;15.60;49.70
50955;DHT22;36966;48.064;-0.792;2024-03-02T02:36:22;15.60;49.50
50955;DHT22;36966;48.064;-0.792;2024-03-02T02:38:42;15.60;49.60
50955;DHT22;36966;48.064;-0.792;2024-03-02T02:41:03;15.60;49.60
50955;DHT22;36966;48.064;-0.792;2024-03-02T02:43:22;15.60;49.50
50955;DHT22;36966;48.064;-0.792;2024-03-02T02:45:41;15.60;49.40
50955;DHT22;36966;48.064;-0.792;2024-03-02T02:48:01;15.60;49.30
50955;DHT22;36966;48.064;-0.792;2024-03-02T02:50:21;15.60;49.50
50955;DHT22;36966;48.064;-0.792;2024-03-02T02:52:41;15.60;49.40
50955;DHT22;36966;48.064;-0.792;2024-03-02T02:55:01;15.60;49.40
50955;DHT22;36966;48.064;-0.792;2024-03-02T02:57:21;15.60;49.40
50955;DHT22;36966;48.064;-0.792;2024-03-02T02:59:40;15.60;49.40
50955;DHT22;36966;48.064;-0.792;2024-03-02T03:01:59;15.60;49.40
50955;DHT22;36966;48.064;-0.792;2024-03-02T03:04:19;15.60;49.30
50955;DHT22;36966;48.064;-0.792;2024-03-02T03:06:38;15.60;49.30
50955;DHT22;36966;48.064;-0.792;2024-03-02T03:08:57;15.60;49.30
50955;DHT22;36966;48.064;-0.792;2024-03-02T03:11:16;15.60;49.20
50955;DHT22;36966;48.064;-0.792;2024-03-02T03:13:36;15.60;49.20
50955;DHT22;36966;48.064;-0.792;2024-03-02T03:15:55;15.60;49.30
50955;DHT22;36966;48.064;-0.792;2024-03-02T03:18:14;15.60;49.30
50955;DHT22;36966;48.064;-0.792;2024-03-02T03:20:33;15.60;49.30
50955;DHT22;36966;48.064;-0.792;2024-03-02T03:22:53;15.60;49.30
50955;DHT22;36966;48.064;-0.792;2024-03-02T03:25:12;15.60;49.30
50955;DHT22;36966;48.064;-0.792;2024-03-02T03:27:31;15.60;49.20
50955;DHT22;36966;48.064;-0.792;2024-03-02T03:29:51;15.50;49.20
50955;DHT22;36966;48.064;-0.792;2024-03-02T03:32:10;15.50;49.20
50955;DHT22;36966;48.064;-0.792;2024-03-02T03:34:29;15.50;49.20
50955;DHT22;36966;48.064;-0.792;2024-03-02T03:36:51;15.50;49.20
50955;DHT22;36966;48.064;-0.792;2024-03-02T03:39:10;15.60;49.20
50955;DHT22;36966;48.064;-0.792;2024-03-02T03:41:30;15.50;49.10
50955;DHT22;36966;48.064;-0.792;2024-03-02T03:43:49;15.50;49.10
50955;DHT22;36966;48.064;-0.792;2024-03-02T03:46:08;15.50;49.20
50955;DHT22;36966;48.064;-0.792;2024-03-02T03:48:28;15.50;49.10
50955;DHT22;36966;48.064;-0.792;2024-03-02T03:50:49;15.50;49.00
50955;DHT22;36966;48.064;-0.792;2024-03-02T03:53:08;15.50;49.10
50955;DHT22;36966;48.064;-0.792;2024-03-02T03:55:27;15.50;49.10
50955;DHT22;36966;48.064;-0.792;2024-03-02T03:57:47;15.50;49.00
50955;DHT22;36966;48.064;-0.792;2024-03-02T04:00:06;15.50;49.10
50955;DHT22;36966;48.064;-0.792;2024-03-02T04:02:26;15.50;49.10
50955;DHT22;36966;48.064;-0.792;2024-03-02T04:04:45;15.50;48.90
50955;DHT22;36966;48.064;-0.792;2024-03-02T04:07:05;15.50;48.90
50955;DHT22;36966;48.064;-0.792;2024-03-02T04:09:24;15.50;48.90
50955;DHT22;36966;48.064;-0.792;2024-03-02T04:11:44;15.50;49.00
50955;DHT22;36966;48.064;-0.792;2024-03-02T04:14:03;15.50;49.00
50955;DHT22;36966;48.064;-0.792;2024-03-02T04:16:25;15.50;48.80
50955;DHT22;36966;48.064;-0.792;2024-03-02T04:18:44;15.40;48.60
50955;DHT22;36966;48.064;-0.792;2024-03-02T04:21:03;15.40;48.80
50955;DHT22;36966;48.064;-0.792;2024-03-02T04:23:23;15.40;48.90
50955;DHT22;36966;48.064;-0.792;2024-03-02T04:25:42;15.40;49.00
50955;DHT22;36966;48.064;-0.792;2024-03-02T04:28:01;15.40;48.80
50955;DHT22;36966;48.064;-0.792;2024-03-02T04:30:21;15.40;49.10
50955;DHT22;36966;48.064;-0.792;2024-03-02T04:32:40;15.40;48.90
50955;DHT22;36966;48.064;-0.792;2024-03-02T04:35:00;15.40;49.00
50955;DHT22;36966;48.064;-0.792;2024-03-02T04:37:19;15.40;48.90
50955;DHT22;36966;48.064;-0.792;2024-03-02T04:39:38;15.40;49.00
50955;DHT22;36966;48.064;-0.792;2024-03-02T04:41:57;15.40;49.10
50955;DHT22;36966;48.064;-0.792;2024-03-02T04:44:17;15.40;49.00
50955;DHT22;36966;48.064;-0.792;2024-03-02T04:46:36;15.40;48.90
50955;DHT22;36966;48.064;-0.792;2024-03-02T04:48:55;15.50;48.80
50955;DHT22;36966;48.064;-0.792;2024-03-02T04:51:16;15.50;48.90
50955;DHT22;36966;48.064;-0.792;2024-03-02T04:53:35;15.40;49.00
50955;DHT22;36966;48.064;-0.792;2024-03-02T04:55:54;15.50;48.90
50955;DHT22;36966;48.064;-0.792;2024-03-02T04:58:14;15.40;48.80
50955;DHT22;36966;48.064;-0.792;2024-03-02T05:00:33;15.40;48.90
50955;DHT22;36966;48.064;-0.792;2024-03-02T05:02:52;15.40;48.90
50955;DHT22;36966;48.064;-0.792;2024-03-02T05:05:12;15.40;49.00
50955;DHT22;36966;48.064;-0.792;2024-03-02T05:07:31;15.40;49.00
50955;DHT22;36966;48.064;-0.792;2024-03-02T05:09:50;15.40;48.90
50955;DHT22;36966;48.064;-0.792;2024-03-02T05:12:09;15.40;48.80
50955;DHT22;36966;48.064;-0.792;2024-03-02T05:14:47;15.40;48.90
50955;DHT22;36966;48.064;-0.792;2024-03-02T05:17:07;15.50;48.80
50955;DHT22;36966;48.064;-0.792;2024-03-02T05:19:26;15.50;48.90
50955;DHT22;36966;48.064;-0.792;2024-03-02T05:21:45;15.50;48.80
50955;DHT22;36966;48.064;-0.792;2024-03-02T05:24:05;15.50;48.70
50955;DHT22;36966;48.064;-0.792;2024-03-02T05:26:24;15.40;49.00
50955;DHT22;36966;48.064;-0.792;2024-03-02T05:28:43;15.20;48.70
50955;DHT22;36966;48.064;-0.792;2024-03-02T05:31:03;15.20;49.70
50955;DHT22;36966;48.064;-0.792;2024-03-02T05:33:22;15.30;49.60
50955;DHT22;36966;48.064;-0.792;2024-03-02T05:35:41;15.40;49.30
50955;DHT22;36966;48.064;-0.792;2024-03-02T05:38:02;15.50;49.10
50955;DHT22;36966;48.064;-0.792;2024-03-02T05:40:22;15.50;48.90
50955;DHT22;36966;48.064;-0.792;2024-03-02T05:42:41;15.50;48.80
50955;DHT22;36966;48.064;-0.792;2024-03-02T05:45:00;15.50;48.80
50955;DHT22;36966;48.064;-0.792;2024-03-02T05:47:19;15.50;48.70
50955;DHT22;36966;48.064;-0.792;2024-03-02T05:49:39;15.50;48.70
50955;DHT22;36966;48.064;-0.792;2024-03-02T05:51:58;15.60;48.70
50955;DHT22;36966;48.064;-0.792;2024-03-02T05:54:17;15.60;48.60
50955;DHT22;36966;48.064;-0.792;2024-03-02T05:56:37;15.60;48.60
50955;DHT22;36966;48.064;-0.792;2024-03-02T05:58:56;15.60;48.60
50955;DHT22;36966;48.064;-0.792;2024-03-02T06:01:31;15.60;48.60
50955;DHT22;36966;48.064;-0.792;2024-03-02T06:03:50;15.60;48.60
50955;DHT22;36966;48.064;-0.792;2024-03-02T06:06:10;15.60;48.50
50955;DHT22;36966;48.064;-0.792;2024-03-02T06:08:29;15.70;48.40
50955;DHT22;36966;48.064;-0.792;2024-03-02T06:10:48;15.70;48.50
50955;DHT22;36966;48.064;-0.792;2024-03-02T06:13:07;15.70;48.50
50955;DHT22;36966;48.064;-0.792;2024-03-02T06:15:27;15.70;48.50
50955;DHT22;36966;48.064;-0.792;2024-03-02T06:17:46;15.70;48.50
50955;DHT22;36966;48.064;-0.792;2024-03-02T06:20:05;15.70;48.40
50955;DHT22;36966;48.064;-0.792;2024-03-02T06:22:27;15.70;48.50
50955;DHT22;36966;48.064;-0.792;2024-03-02T06:24:46;15.70;48.40
50955;DHT22;36966;48.064;-0.792;2024-03-02T06:27:05;15.70;48.40
50955;DHT22;36966;48.064;-0.792;2024-03-02T06:29:25;15.70;48.40
50955;DHT22;36966;48.064;-0.792;2024-03-02T06:31:44;15.70;48.40
50955;DHT22;36966;48.064;-0.792;2024-03-02T06:34:03;15.80;48.40
50955;DHT22;36966;48.064;-0.792;2024-03-02T06:36:23;15.70;48.30
50955;DHT22;36966;48.064;-0.792;2024-03-02T06:38:42;15.70;48.30
50955;DHT22;36966;48.064;-0.792;2024-03-02T06:41:02;15.70;48.40
50955;DHT22;36966;48.064;-0.792;2024-03-02T06:43:21;15.70;48.40
50955;DHT22;36966;48.064;-0.792;2024-03-02T06:45:43;15.70;48.20
50955;DHT22;36966;48.064;-0.792;2024-03-02T06:48:03;15.70;48.30
50955;DHT22;36966;48.064;-0.792;2024-03-02T06:50:22;15.70;48.20
50955;DHT22;36966;48.064;-0.792;2024-03-02T06:52:41;15.80;48.30
50955;DHT22;36966;48.064;-0.792;2024-03-02T06:55:01;15.80;48.30
50955;DHT22;36966;48.064;-0.792;2024-03-02T06:57:20;15.70;48.30
50955;DHT22;36966;48.064;-0.792;2024-03-02T06:59:39;15.80;48.30
50955;DHT22;36966;48.064;-0.792;2024-03-02T07:01:59;15.70;48.30
50955;DHT22;36966;48.064;-0.792;2024-03-02T07:04:18;15.70;48.30
50955;DHT22;36966;48.064;-0.792;2024-03-02T07:06:37;15.80;48.30
50955;DHT22;36966;48.064;-0.792;2024-03-02T07:08:57;15.70;48.30
50955;DHT22;36966;48.064;-0.792;2024-03-02T07:11:16;15.70;48.40
50955;DHT22;36966;48.064;-0.792;2024-03-02T07:13:35;15.80;48.30
50955;DHT22;36966;48.064;-0.792;2024-03-02T07:15:54;15.80;48.40
50955;DHT22;36966;48.064;-0.792;2024-03-02T07:18:23;15.80;48.30
50955;DHT22;36966;48.064;-0.792;2024-03-02T07:20:42;15.80;48.40
50955;DHT22;36966;48.064;-0.792;2024-03-02T07:23:01;15.80;48.40
50955;DHT22;36966;48.064;-0.792;2024-03-02T07:25:20;15.80;48.40
50955;DHT22;36966;48.064;-0.792;2024-03-02T07:27:40;15.80;48.40
50955;DHT22;36966;48.064;-0.792;2024-03-02T07:29:59;15.80;48.20
50955;DHT22;36966;48.064;-0.792;2024-03-02T07:32:18;15.80;48.20
50955;DHT22;36966;48.064;-0.792;2024-03-02T07:34:37;15.80;48.10
50955;DHT22;36966;48.064;-0.792;2024-03-02T07:36:56;15.80;48.10
50955;DHT22;36966;48.064;-0.792;2024-03-02T07:39:16;15.80;48.10
50955;DHT22;36966;48.064;-0.792;2024-03-02T07:41:35;15.80;48.20
50955;DHT22;36966;48.064;-0.792;2024-03-02T07:43:54;15.80;48.20
50955;DHT22;36966;48.064;-0.792;2024-03-02T07:46:14;15.80;48.20
50955;DHT22;36966;48.064;-0.792;2024-03-02T07:48:33;15.80;48.20
50955;DHT22;36966;48.064;-0.792;2024-03-02T07:50:52;15.80;48.20
50955;DHT22;36966;48.064;-0.792;2024-03-02T07:53:11;15.80;48.20
50955;DHT22;36966;48.064;-0.792;2024-03-02T07:55:31;15.80;48.10
50955;DHT22;36966;48.064;-0.792;2024-03-02T07:57:50;15.80;48.20
50955;DHT22;36966;48.064;-0.792;2024-03-02T08:00:09;15.80;48.20
50955;DHT22;36966;48.064;-0.792;2024-03-02T08:02:28;15.80;48.20
50955;DHT22;36966;48.064;-0.792;2024-03-02T08:04:47;15.80;48.20
50955;DHT22;36966;48.064;-0.792;2024-03-02T08:07:07;15.80;48.20
50955;DHT22;36966;48.064;-0.792;2024-03-02T08:09:27;15.80;48.20
50955;DHT22;36966;48.064;-0.792;2024-03-02T08:11:46;15.80;48.20
50955;DHT22;36966;48.064;-0.792;2024-03-02T08:14:06;15.80;48.30
50955;DHT22;36966;48.064;-0.792;2024-03-02T08:16:25;15.80;48.30
50955;DHT22;36966;48.064;-0.792;2024-03-02T08:18:45;15.80;48.30
50955;DHT22;36966;48.064;-0.792;2024-03-02T08:21:04;15.90;48.30
50955;DHT22;36966;48.064;-0.792;2024-03-02T08:23:23;15.90;48.30
50955;DHT22;36966;48.064;-0.792;2024-03-02T08:25:43;15.80;48.30
50955;DHT22;36966;48.064;-0.792;2024-03-02T08:28:02;15.60;53.40
50955;DHT22;36966;48.064;-0.792;2024-03-02T08:30:21;15.70;52.40
50955;DHT22;36966;48.064;-0.792;2024-03-02T08:32:40;15.80;51.40
50955;DHT22;36966;48.064;-0.792;2024-03-02T08:35:00;15.80;50.50
50955;DHT22;36966;48.064;-0.792;2024-03-02T08:37:19;15.80;50.10
50955;DHT22;36966;48.064;-0.792;2024-03-02T08:39:38;15.80;49.80
50955;DHT22;36966;48.064;-0.792;2024-03-02T08:41:58;15.80;49.60
50955;DHT22;36966;48.064;-0.792;2024-03-02T08:44:17;15.80;49.50
50955;DHT22;36966;48.064;-0.792;2024-03-02T08:46:36;15.80;49.40
50955;DHT22;36966;48.064;-0.792;2024-03-02T08:48:56;15.80;49.30
50955;DHT22;36966;48.064;-0.792;2024-03-02T08:51:15;15.70;49.30
50955;DHT22;36966;48.064;-0.792;2024-03-02T08:53:34;15.80;49.20
50955;DHT22;36966;48.064;-0.792;2024-03-02T08:55:54;15.70;49.20
50955;DHT22;36966;48.064;-0.792;2024-03-02T08:58:14;15.70;49.30
50955;DHT22;36966;48.064;-0.792;2024-03-02T09:00:33;15.80;49.30
50955;DHT22;36966;48.064;-0.792;2024-03-02T09:02:52;15.80;49.20
50955;DHT22;36966;48.064;-0.792;2024-03-02T09:05:12;15.70;49.20
50955;DHT22;36966;48.064;-0.792;2024-03-02T09:07:31;15.80;49.10
50955;DHT22;36966;48.064;-0.792;2024-03-02T09:09:51;15.80;49.10
50955;DHT22;36966;48.064;-0.792;2024-03-02T09:12:11;15.80;49.20
50955;DHT22;36966;48.064;-0.792;2024-03-02T09:14:30;15.80;49.20
50955;DHT22;36966;48.064;-0.792;2024-03-02T09:16:49;15.80;49.20
50955;DHT22;36966;48.064;-0.792;2024-03-02T09:19:09;15.80;49.20
50955;DHT22;36966;48.064;-0.792;2024-03-02T09:21:29;15.80;49.20
50955;DHT22;36966;48.064;-0.792;2024-03-02T09:23:49;15.80;49.10
50955;DHT22;36966;48.064;-0.792;2024-03-02T09:26:08;15.80;49.20
50955;DHT22;36966;48.064;-0.792;2024-03-02T09:28:27;15.80;49.20
50955;DHT22;36966;48.064;-0.792;2024-03-02T09:30:46;15.90;49.20
50955;DHT22;36966;48.064;-0.792;2024-03-02T09:33:05;15.80;49.10
50955;DHT22;36966;48.064;-0.792;2024-03-02T09:35:25;15.90;49.20
50955;DHT22;36966;48.064;-0.792;2024-03-02T09:37:44;15.80;49.20
50955;DHT22;36966;48.064;-0.792;2024-03-02T09:40:04;15.80;49.20
50955;DHT22;36966;48.064;-0.792;2024-03-02T09:42:23;15.90;49.20
50955;DHT22;36966;48.064;-0.792;2024-03-02T09:44:43;15.90;49.20
50955;DHT22;36966;48.064;-0.792;2024-03-02T09:47:02;15.90;49.20
50955;DHT22;36966;48.064;-0.792;2024-03-02T09:49:22;15.90;49.20
50955;DHT22;36966;48.064;-0.792;2024-03-02T09:51:41;15.90;49.20
50955;DHT22;36966;48.064;-0.792;2024-03-02T09:54:03;15.90;49.20
50955;DHT22;36966;48.064;-0.792;2024-03-02T09:56:23;15.90;49.20
50955;DHT22;36966;48.064;-0.792;2024-03-02T09:58:42;15.90;49.20
50955;DHT22;36966;48.064;-0.792;2024-03-02T10:01:05;15.90;49.30
50955;DHT22;36966;48.064;-0.792;2024-03-02T10:03:24;15.90;49.30
50955;DHT22;36966;48.064;-0.792;2024-03-02T10:05:44;15.90;49.30
50955;DHT22;36966;48.064;-0.792;2024-03-02T10:08:03;15.90;49.30
50955;DHT22;36966;48.064;-0.792;2024-03-02T10:10:22;15.90;49.30
50955;DHT22;36966;48.064;-0.792;2024-03-02T10:12:41;16.00;49.30
50955;DHT22;36966;48.064;-0.792;2024-03-02T10:15:04;15.90;49.30
50955;DHT22;36966;48.064;-0.792;2024-03-02T10:17:24;15.90;49.30
50955;DHT22;36966;48.064;-0.792;2024-03-02T10:19:49;15.90;49.30
50955;DHT22;36966;48.064;-0.792;2024-03-02T10:22:09;15.90;49.40
50955;DHT22;36966;48.064;-0.792;2024-03-02T10:24:34;15.90;49.30
50955;DHT22;36966;48.064;-0.792;2024-03-02T10:26:55;16.00;49.40
50955;DHT22;36966;48.064;-0.792;2024-03-02T10:29:15;15.90;49.40
50955;DHT22;36966;48.064;-0.792;2024-03-02T10:31:35;15.90;49.40
50955;DHT22;36966;48.064;-0.792;2024-03-02T10:33:54;15.90;49.40
50955;DHT22;36966;48.064;-0.792;2024-03-02T10:36:14;16.00;49.40
50955;DHT22;36966;48.064;-0.792;2024-03-02T10:38:33;15.90;49.40
50955;DHT22;36966;48.064;-0.792;2024-03-02T10:40:52;16.00;49.40
50955;DHT22;36966;48.064;-0.792;2024-03-02T10:43:14;16.00;49.50
50955;DHT22;36966;48.064;-0.792;2024-03-02T10:45:33;15.90;49.40
50955;DHT22;36966;48.064;-0.792;2024-03-02T10:47:53;16.00;49.40
50955;DHT22;36966;48.064;-0.792;2024-03-02T10:50:12;16.00;49.40
50955;DHT22;36966;48.064;-0.792;2024-03-02T10:52:32;16.10;50.90
50955;DHT22;36966;48.064;-0.792;2024-03-02T10:54:51;16.10;50.30
50955;DHT22;36966;48.064;-0.792;2024-03-02T10:57:10;16.20;49.90
50955;DHT22;36966;48.064;-0.792;2024-03-02T10:59:33;16.20;49.70
50955;DHT22;36966;48.064;-0.792;2024-03-02T11:01:55;16.20;49.90
50955;DHT22;36966;48.064;-0.792;2024-03-02T11:04:15;16.20;50.20
50955;DHT22;36966;48.064;-0.792;2024-03-02T11:06:35;16.20;49.90
50955;DHT22;36966;48.064;-0.792;2024-03-02T11:08:58;16.20;49.80
50955;DHT22;36966;48.064;-0.792;2024-03-02T11:11:22;16.20;49.80
50955;DHT22;36966;48.064;-0.792;2024-03-02T11:13:49;16.20;52.60
50955;DHT22;36966;48.064;-0.792;2024-03-02T11:16:09;16.50;54.00
50955;DHT22;36966;48.064;-0.792;2024-03-02T11:18:32;16.70;54.90
50955;DHT22;36966;48.064;-0.792;2024-03-02T11:20:52;16.80;54.00
50955;DHT22;36966;48.064;-0.792;2024-03-02T11:23:11;16.70;53.10
50955;DHT22;36966;48.064;-0.792;2024-03-02T11:25:31;16.60;53.20
50955;DHT22;36966;48.064;-0.792;2024-03-02T11:32:54;16.80;52.30
50955;DHT22;36966;48.064;-0.792;2024-03-02T11:35:14;17.00;51.90
50955;DHT22;36966;48.064;-0.792;2024-03-02T11:37:33;17.10;51.50
50955;DHT22;36966;48.064;-0.792;2024-03-02T11:39:53;17.20;51.10
50955;DHT22;36966;48.064;-0.792;2024-03-02T11:42:14;17.30;50.80
50955;DHT22;36966;48.064;-0.792;2024-03-02T11:44:34;17.30;50.60
50955;DHT22;36966;48.064;-0.792;2024-03-02T11:47:05;17.30;50.70
50955;DHT22;36966;48.064;-0.792;2024-03-02T11:49:38;17.20;50.80
50955;DHT22;36966;48.064;-0.792;2024-03-02T11:52:00;17.00;51.00
50955;DHT22;36966;48.064;-0.792;2024-03-02T11:54:20;16.80;51.20
50955;DHT22;36966;48.064;-0.792;2024-03-02T11:56:39;16.70;51.30
50955;DHT22;36966;48.064;-0.792;2024-03-02T11:58:59;16.60;51.40
50955;DHT22;36966;48.064;-0.792;2024-03-02T12:01:19;16.60;51.40
50955;DHT22;36966;48.064;-0.792;2024-03-02T12:03:38;16.50;51.40
50955;DHT22;36966;48.064;-0.792;2024-03-02T12:05:58;16.50;51.30
50955;DHT22;36966;48.064;-0.792;2024-03-02T12:08:18;16.50;51.20
50955;DHT22;36966;48.064;-0.792;2024-03-02T12:10:37;16.50;51.10
50955;DHT22;36966;48.064;-0.792;2024-03-02T12:13:01;16.50;51.10
50955;DHT22;36966;48.064;-0.792;2024-03-02T12:15:22;16.50;51.00
50955;DHT22;36966;48.064;-0.792;2024-03-02T12:17:41;16.40;51.00
50955;DHT22;36966;48.064;-0.792;2024-03-02T12:20:00;16.50;50.90
50955;DHT22;36966;48.064;-0.792;2024-03-02T12:22:22;16.50;50.80
50955;DHT22;36966;48.064;-0.792;2024-03-02T12:24:42;16.50;50.80
50955;DHT22;36966;48.064;-0.792;2024-03-02T12:27:05;16.40;50.80
50955;DHT22;36966;48.064;-0.792;2024-03-02T12:29:24;16.40;50.70
50955;DHT22;36966;48.064;-0.792;2024-03-02T12:31:43;16.40;50.80
50955;DHT22;36966;48.064;-0.792;2024-03-02T12:34:06;16.40;50.70
50955;DHT22;36966;48.064;-0.792;2024-03-02T12:36:25;16.40;50.70
50955;DHT22;36966;48.064;-0.792;2024-03-02T12:38:44;16.40;50.60
50955;DHT22;36966;48.064;-0.792;2024-03-02T12:41:03;16.40;50.60
50955;DHT22;36966;48.064;-0.792;2024-03-02T12:43:29;16.40;50.60
50955;DHT22;36966;48.064;-0.792;2024-03-02T12:45:48;16.40;50.50
50955;DHT22;36966;48.064;-0.792;2024-03-02T12:48:07;16.40;50.40
50955;DHT22;36966;48.064;-0.792;2024-03-02T12:50:27;16.40;50.40
50955;DHT22;36966;48.064;-0.792;2024-03-02T12:52:52;16.40;50.40
50955;DHT22;36966;48.064;-0.792;2024-03-02T12:55:11;16.40;50.30
50955;DHT22;36966;48.064;-0.792;2024-03-02T12:57:31;16.40;50.30
50955;DHT22;36966;48.064;-0.792;2024-03-02T12:59:50;16.40;50.30
50955;DHT22;36966;48.064;-0.792;2024-03-02T13:02:16;16.40;50.30
50955;DHT22;36966;48.064;-0.792;2024-03-02T13:04:35;16.40;50.20
50955;DHT22;36966;48.064;-0.792;2024-03-02T13:06:55;16.40;50.30
50955;DHT22;36966;48.064;-0.792;2024-03-02T13:09:16;16.40;50.20
50955;DHT22;36966;48.064;-0.792;2024-03-02T13:11:35;16.40;50.20
50955;DHT22;36966;48.064;-0.792;2024-03-02T13:13:56;16.40;50.20
50955;DHT22;36966;48.064;-0.792;2024-03-02T13:16:15;16.40;50.20
50955;DHT22;36966;48.064;-0.792;2024-03-02T13:18:35;16.40;50.20
50955;DHT22;36966;48.064;-0.792;2024-03-02T13:20:55;16.40;50.20
50955;DHT22;36966;48.064;-0.792;2024-03-02T13:23:15;16.40;50.10
50955;DHT22;36966;48.064;-0.792;2024-03-02T13:25:34;16.40;50.10
50955;DHT22;36966;48.064;-0.792;2024-03-02T13:27:53;16.40;50.10
50955;DHT22;36966;48.064;-0.792;2024-03-02T13:30:12;16.40;50.10
50955;DHT22;36966;48.064;-0.792;2024-03-02T13:32:32;16.40;50.10
50955;DHT22;36966;48.064;-0.792;2024-03-02T13:34:51;16.40;50.00
50955;DHT22;36966;48.064;-0.792;2024-03-02T13:37:10;16.40;50.00
50955;DHT22;36966;48.064;-0.792;2024-03-02T13:39:29;16.40;50.00
50955;DHT22;36966;48.064;-0.792;2024-03-02T13:41:49;16.40;50.00
50955;DHT22;36966;48.064;-0.792;2024-03-02T13:44:16;16.40;50.00
50955;DHT22;36966;48.064;-0.792;2024-03-02T13:46:35;16.40;49.90
50955;DHT22;36966;48.064;-0.792;2024-03-02T13:48:55;16.40;49.90
50955;DHT22;36966;48.064;-0.792;2024-03-02T13:51:14;16.40;49.90
50955;DHT22;36966;48.064;-0.792;2024-03-02T13:53:34;16.40;49.90
50955;DHT22;36966;48.064;-0.792;2024-03-02T13:55:53;16.40;49.90
50955;DHT22;36966;48.064;-0.792;2024-03-02T13:58:12;16.40;49.90
50955;DHT22;36966;48.064;-0.792;2024-03-02T14:00:32;16.40;49.90
50955;DHT22;36966;48.064;-0.792;2024-03-02T14:02:51;16.40;49.90
50955;DHT22;36966;48.064;-0.792;2024-03-02T14:05:10;16.40;49.90
50955;DHT22;36966;48.064;-0.792;2024-03-02T14:07:30;16.40;50.00
50955;DHT22;36966;48.064;-0.792;2024-03-02T14:09:49;16.40;49.90
50955;DHT22;36966;48.064;-0.792;2024-03-02T14:12:09;16.40;50.00
50955;DHT22;36966;48.064;-0.792;2024-03-02T14:14:28;16.40;50.00
50955;DHT22;36966;48.064;-0.792;2024-03-02T14:16:47;16.40;50.00
50955;DHT22;36966;48.064;-0.792;2024-03-02T14:19:07;16.50;50.00
50955;DHT22;36966;48.064;-0.792;2024-03-02T14:21:26;16.40;50.10
50955;DHT22;36966;48.064;-0.792;2024-03-02T14:23:45;16.40;50.10
50955;DHT22;36966;48.064;-0.792;2024-03-02T14:26:05;16.40;50.20
50955;DHT22;36966;48.064;-0.792;2024-03-02T14:28:24;16.40;50.20
50955;DHT22;36966;48.064;-0.792;2024-03-02T14:30:43;16.40;50.20
50955;DHT22;36966;48.064;-0.792;2024-03-02T14:33:03;16.40;50.20
50955;DHT22;36966;48.064;-0.792;2024-03-02T14:35:22;16.50;50.20